Minot Air Force Base
KMIB : rendu visible

Aérodrome :











RETROUVEZ-NOUS SUR...

 
LOGIN :

S'inscrire | Disclaimer

   EN    FR    IT 

 









Légende :    VFR   VFR Marginal   IFR   IFR Intensif   IFR Très Intensif
Visi : 
Plafond : 
>= 8 km
>= 3000ft
5 à 8 km
1000 à 3000 ft
1500m à 5 km
500 à 1000 ft
800 à 1500m
200 à 500 ft
< 800m
< 200 ft
Symboles :   Orages  Brouillard  Fortes neiges  Fortes précipitations  Vent > 20 kt






- Altitude de l'aérodrome : 1667 ft


KMIB - Minot Air Force Base

DERNIER METAR :
  • 211556Z AUTO 29007KT 10SM CLR M11/M13 A3019 RMK AO2 SLP261 T11101128 $

METARs EXPIRÉS :
  • 211456Z AUTO 28003KT 7SM CLR M14/M16 A3020 RMK AO2 SLP268 T11431163 52014 $
  • 211356Z AUTO 29003KT 8SM FEW001 M14/M16 A3018 RMK AO2 SLP259 T11451165 $
  • 211257Z 30005KT 10SM FEW002 M15/M17 A3017 RMK AO2 SLP257 T11491169 $
  • 211245Z AUTO 31006KT 10SM FEW002 M14/M16 A3017 RMK AO2 SLP256 $

TAF AMD TAF KMIB
Valide du 21 à 11h jusqu'au 22 à 15h UTC


211130Z 2111/2215 31006KT 9999 BKN015 620152 QNH3013INS
BECMG 2117/2118 VRB06KT 9999 SKC QNH2984INS TXM03/2120Z TNM12/2111Z



MET'MAP, la Météo Aéronautique d'un coup d'oeil ! - Copyright ORBIFLY Décembre 2007 - Disclaimer

ORBIFLY MET'MAP TEAM :

Programmation & Développement : Alexandra Zaïnal
Conception & Développement : Baudouin d'Aumeries
Co-Programmation & Développement : Marc-Olivier Méhu
Soutien technique & logistique : Manuel Goepfert

Contact : metmap@orbifly.com




SOURCES & CREDITS :

   NOAA       Earth
Advisory